Time;durP1;ratioP1;P1;durP2;ratioP2;P2;SDS_P1;SDS_P2;PMS_P1;PMS_P2;Temp;Humidity;BMP_temperature;BMP_pressure;BME280_temperature;BME280_humidity;BME280_pressure;Samples;Min_cycle;Max_cycle;Signal;HPM_P1;HPM_P2
2024/04/13 00:01:19;;;;;;;;;3.00;2.00;;;;;24.78;43.63;102660.56;5183694;27;43888;-82
2024/04/13 00:03:45;;;;;;;;;5.00;1.67;;;;;24.69;43.70;102641.91;5209889;27;45953;-82
2024/04/13 00:06:11;;;;;;;;;2.00;2.00;;;;;24.81;43.45;102657.59;5183828;27;43927;-81
2024/04/13 00:08:38;;;;;;;;;2.67;2.67;;;;;24.72;43.44;102643.41;5184047;27;43991;-82
2024/04/13 00:11:08;;;;;;;;;2.00;2.00;;;;;24.66;42.88;102636.88;5183913;27;43948;-81
2024/04/13 00:13:34;;;;;;;;;2.67;2.67;;;;;24.80;43.86;102664.75;5183870;27;44972;-82
2024/04/13 00:16:00;;;;;;;;;2.67;2.00;;;;;24.69;44.10;102649.88;5183312;27;43904;-82
2024/04/13 00:18:25;;;;;;;;;2.00;2.00;;;;;24.63;43.59;102635.38;5183828;27;43754;-82
2024/04/13 00:20:50;;;;;;;;;4.00;2.33;;;;;24.68;43.39;102632.22;5183759;27;43892;-81
2024/04/13 00:23:16;;;;;;;;;3.00;2.00;;;;;24.80;44.48;102659.44;5181696;27;44930;-82
2024/04/13 00:25:41;;;;;;;;;3.33;3.33;;;;;24.66;43.18;102628.06;5183396;27;43969;-81
2024/04/13 00:28:09;;;;;;;;;3.00;2.00;;;;;24.66;44.13;102636.03;5183762;27;43850;-81
2024/04/13 00:30:34;;;;;;;;;2.00;2.00;;;;;24.65;44.23;102635.19;5183382;27;43892;-81
2024/04/13 00:33:00;;;;;;;;;3.00;3.00;;;;;24.74;43.76;102644.09;5183236;27;44867;-81
2024/04/13 00:35:26;;;;;;;;;3.00;3.00;;;;;24.67;44.02;102635.88;5183435;27;43973;-82
2024/04/13 00:37:51;;;;;;;;;2.00;2.00;;;;;24.80;44.23;102655.94;5183445;27;44048;-81
2024/04/13 00:40:16;;;;;;;;;2.00;2.00;;;;;24.71;43.38;102644.41;5183373;27;43813;-81
2024/04/13 00:42:42;;;;;;;;;2.67;2.33;;;;;24.72;43.35;102640.75;5182475;27;45725;-81
2024/04/13 00:45:08;;;;;;;;;4.00;2.00;;;;;24.69;44.20;102633.91;5183069;27;43963;-81
2024/04/13 00:47:34;;;;;;;;;3.00;3.00;;;;;24.69;43.52;102636.56;5181664;27;44032;-81
2024/04/13 00:50:02;;;;;;;;;2.67;2.67;;;;;24.66;43.90;102628.06;5183221;27;43856;-82
2024/04/13 00:52:29;;;;;;;;;3.00;1.67;;;;;24.79;43.79;102644.47;5182863;27;44902;-82
2024/04/13 00:54:55;;;;;;;;;3.33;3.00;;;;;24.69;43.14;102631.25;5181157;27;43987;-81
2024/04/13 00:57:21;;;;;;;;;3.33;2.67;;;;;24.79;44.16;102646.28;5182738;27;43990;-81
2024/04/13 00:59:50;;;;;;;;;4.67;3.00;;;;;24.69;43.61;102633.91;5183335;27;43927;-82
2024/04/13 01:02:18;;;;;;;;;4.00;3.00;;;;;24.63;42.96;102619.41;5185786;27;45181;-82
2024/04/13 01:04:50;;;;;;;;;2.33;2.33;;;;;24.78;44.50;102642.78;5185989;27;44026;-81
2024/04/13 01:07:19;;;;;;;;;2.33;2.00;;;;;24.66;43.10;102617.41;5185932;27;44023;-81
2024/04/13 01:09:45;;;;;;;;;3.00;3.00;;;;;24.74;43.65;102628.13;5185924;27;43940;-81
2024/04/13 01:12:13;;;;;;;;;3.00;3.00;;;;;24.70;44.03;102629.41;5185273;27;45741;-81
2024/04/13 01:14:39;;;;;;;;;3.00;2.00;;;;;24.68;44.26;102618.09;5184330;27;43841;-81
2024/04/13 01:17:05;;;;;;;;;2.33;2.33;;;;;24.69;43.41;102619.78;5185840;27;43928;-80
2024/04/13 01:19:32;;;;;;;;;2.00;2.00;;;;;24.76;43.23;102626.13;5184112;27;44004;-82
2024/04/13 01:21:59;;;;;;;;;2.33;2.33;;;;;24.72;43.49;102614.94;5185512;27;44818;-80
2024/04/13 01:24:24;;;;;;;;;2.67;2.00;;;;;24.76;44.22;102625.28;5185791;27;43832;-83
2024/04/13 01:26:50;;;;;;;;;3.00;3.00;;;;;24.68;43.81;102612.75;5185289;27;43907;-82
2024/04/13 01:29:16;;;;;;;;;5.00;2.00;;;;;24.76;43.54;102623.47;5185838;27;43999;-81
2024/04/13 01:31:42;;;;;;;;;4.33;4.00;;;;;24.69;43.39;102607.31;5185332;27;45752;-82
2024/04/13 01:34:08;;;;;;;;;2.00;2.00;;;;;24.63;44.16;102594.59;5185703;27;43904;-81
2024/04/13 01:36:37;;;;;;;;;3.00;3.00;;;;;24.75;43.61;102611.13;5185696;27;43865;-82
2024/04/13 01:39:08;;;;;;;;;1.33;1.00;;;;;24.75;44.08;102613.81;5185750;27;43999;-82
2024/04/13 01:41:36;;;;;;;;;2.33;2.33;;;;;24.76;43.79;102611.97;5185337;27;44109;-82
2024/04/13 01:44:01;;;;;;;;;3.67;2.33;;;;;24.74;44.19;102607.66;5185488;27;46886;-81
2024/04/13 01:46:27;;;;;;;;;2.67;2.67;;;;;24.75;43.40;102608.47;5185616;27;43949;-82
2024/04/13 01:48:52;;;;;;;;;3.00;3.00;;;;;24.65;44.00;102597.09;5183793;27;43735;-82
2024/04/13 01:51:18;;;;;;;;;3.33;2.67;;;;;24.69;42.70;102598.47;5185368;27;45705;-81
2024/04/13 01:53:43;;;;;;;;;3.00;3.00;;;;;24.75;44.53;102608.47;5185525;27;43856;-82
2024/04/13 01:56:08;;;;;;;;;1.67;1.67;;;;;24.50;44.30;102557.75;5185192;27;44183;-81
2024/04/13 01:58:33;;;;;;;;;2.00;2.00;;;;;24.66;43.00;102588.13;5185425;27;43886;-81
2024/04/13 02:01:03;;;;;;;;;5.33;2.00;;;;;24.74;44.21;102609.50;5185325;27;44725;-82
2024/04/13 02:03:29;;;;;;;;;2.33;2.33;;;;;24.51;43.17;102564.75;5185502;27;43987;-81
2024/04/13 02:06:00;;;;;;;;;3.67;3.00;;;;;24.73;43.95;102595.34;5185329;27;44066;-82
2024/04/13 02:08:25;;;;;;;;;3.00;1.67;;;;;24.74;42.97;102609.50;5185385;27;43989;-81
2024/04/13 02:10:51;;;;;;;;;1.67;1.67;;;;;24.68;43.58;102591.47;5184375;27;44859;-80
2024/04/13 02:13:17;;;;;;;;;3.00;3.00;;;;;24.72;44.48;102604.31;5184805;27;44019;-81
2024/04/13 02:15:46;;;;;;;;;2.67;2.00;;;;;24.68;43.34;102591.47;5185289;27;43988;-81
2024/04/13 02:18:12;;;;;;;;;2.33;2.33;;;;;24.65;43.39;102583.78;5185530;27;43956;-82
2024/04/13 02:20:37;;;;;;;;;3.33;3.00;;;;;24.72;44.33;102588.34;5184909;27;44229;-82
2024/04/13 02:23:04;;;;;;;;;2.67;2.67;;;;;24.73;43.25;102597.16;5185324;27;43761;-82
2024/04/13 02:25:30;;;;;;;;;3.00;2.00;;;;;24.61;44.05;102576.16;5185000;27;43877;-81
2024/04/13 02:27:56;;;;;;;;;2.67;2.67;;;;;24.42;43.38;102547.03;5185129;27;43911;-82
2024/04/13 02:30:21;;;;;;;;;3.33;3.33;;;;;24.64;44.39;102580.31;5184958;27;44853;-82
2024/04/13 02:32:47;;;;;;;;;4.33;3.00;;;;;24.72;44.14;102593.66;5185021;27;43860;-82
2024/04/13 02:35:12;;;;;;;;;3.00;3.00;;;;;24.69;43.31;102586.00;5185105;27;43830;-82
2024/04/13 02:37:38;;;;;;;;;2.33;2.33;;;;;24.69;43.56;102579.84;5185268;27;43907;-81
2024/04/13 02:40:07;;;;;;;;;3.67;2.33;;;;;24.72;44.31;102584.88;5184617;27;44876;-81
2024/04/13 02:42:33;;;;;;;;;4.00;3.00;;;;;24.37;44.09;102532.41;5184933;27;44082;-82
2024/04/13 02:44:59;;;;;;;;;2.33;2.33;;;;;24.71;44.30;102584.03;5185179;27;43880;-82
2024/04/13 02:47:25;;;;;;;;;2.00;2.00;;;;;24.68;43.02;102578.16;5184802;27;44039;-82
2024/04/13 02:49:50;;;;;;;;;3.67;3.67;;;;;24.60;43.34;102563.81;5184991;27;45969;-82
2024/04/13 02:52:16;;;;;;;;;4.67;3.00;;;;;24.71;44.14;102580.53;5184889;27;43924;-82
2024/04/13 02:54:41;;;;;;;;;3.00;3.00;;;;;24.67;43.47;102569.34;5184601;27;44042;-82
2024/04/13 02:57:07;;;;;;;;;3.00;2.00;;;;;24.72;44.22;102582.19;5185144;27;43979;-81
2024/04/13 02:59:32;;;;;;;;;1.33;1.33;;;;;24.51;44.58;102546.13;5184662;27;44796;-81
2024/04/13 03:01:58;;;;;;;;;3.00;3.00;;;;;24.60;43.09;102563.81;5185040;27;43995;-82
2024/04/13 03:04:23;;;;;;;;;2.00;2.00;;;;;24.71;44.37;102570.72;5184955;27;43868;-82
2024/04/13 03:06:48;;;;;;;;;3.00;3.00;;;;;24.70;43.50;102571.69;5183904;27;44067;-82
2024/04/13 03:09:13;;;;;;;;;2.00;2.00;;;;;24.68;43.97;102560.38;5183791;27;44751;-81
2024/04/13 03:11:39;;;;;;;;;4.00;4.00;;;;;24.71;44.09;102567.22;5185253;27;43971;-82
2024/04/13 03:14:04;;;;;;;;;2.67;2.67;;;;;24.65;43.44;102555.34;5184852;27;44051;-81
2024/04/13 03:16:29;;;;;;;;;2.33;2.33;;;;;24.70;44.39;102563.72;5184692;27;43972;-82
2024/04/13 03:18:55;;;;;;;;;2.00;2.00;;;;;24.58;43.29;102544.50;5184720;27;44018;-81
2024/04/13 03:21:20;;;;;;;;;2.33;2.00;;;;;24.71;43.91;102562.72;5184750;27;43959;-81
2024/04/13 03:23:45;;;;;;;;;3.33;2.00;;;;;24.52;43.76;102540.66;5184205;27;43992;-81
2024/04/13 03:26:11;;;;;;;;;2.00;2.00;;;;;24.64;43.21;102556.38;5184757;27;43804;-81
2024/04/13 03:28:36;;;;;;;;;2.67;2.67;;;;;24.70;43.68;102570.84;5184718;27;43981;-81
2024/04/13 03:31:03;;;;;;;;;2.67;2.67;;;;;24.70;43.17;102569.03;5184048;27;43839;-82
2024/04/13 03:33:29;;;;;;;;;4.00;4.00;;;;;24.35;43.82;102509.59;5183122;27;44387;-83
2024/04/13 03:35:59;;;;;;;;;2.00;2.00;;;;;24.70;44.39;102569.03;5181768;27;44030;-79
2024/04/13 03:38:25;;;;;;;;;3.00;3.00;;;;;24.69;43.44;102562.06;5183187;27;44299;-78
2024/04/13 03:40:59;;;;;;;;;3.00;3.00;;;;;24.71;43.95;102573.38;5184274;27;43912;-77
2024/04/13 03:43:25;;;;;;;;;3.00;3.00;;;;;24.63;43.09;102557.34;5184353;27;43988;-77
2024/04/13 03:45:53;;;;;;;;;3.67;3.67;;;;;24.71;44.53;102561.88;5184577;27;43868;-77
2024/04/13 03:48:19;;;;;;;;;3.00;3.00;;;;;24.61;43.65;102546.03;5184518;27;43968;-77
2024/04/13 03:50:44;;;;;;;;;2.33;2.00;;;;;24.52;42.82;102529.16;5184032;27;43964;-77
2024/04/13 03:53:09;;;;;;;;;6.33;3.33;;;;;24.70;43.48;102558.38;5184248;27;43996;-77
2024/04/13 03:55:35;;;;;;;;;1.00;1.00;;;;;24.71;43.85;102557.41;5184297;27;43946;-77
2024/04/13 03:58:00;;;;;;;;;4.00;3.00;;;;;24.42;43.97;102517.78;5183776;27;49286;-77
2024/04/13 04:00:25;;;;;;;;;1.00;0.00;;;;;24.69;43.46;102556.72;5183848;27;43946;-77
2024/04/13 04:02:51;;;;;;;;;3.00;3.00;;;;;24.70;43.86;102552.22;5184157;27;43946;-77
2024/04/13 04:05:17;;;;;;;;;3.33;3.00;;;;;24.43;43.33;102512.31;5184052;27;43911;-77
2024/04/13 04:07:43;;;;;;;;;3.00;3.00;;;;;24.59;43.34;102540.84;5183411;27;44929;-77
2024/04/13 04:10:11;;;;;;;;;3.00;3.00;;;;;24.48;43.93;102528.66;5183711;27;43839;-77
2024/04/13 04:12:37;;;;;;;;;1.67;1.67;;;;;24.50;43.88;102536.47;5184030;27;43860;-77
2024/04/13 04:15:03;;;;;;;;;2.67;2.67;;;;;24.62;43.85;102553.00;5183732;27;44033;-77
2024/04/13 04:17:28;;;;;;;;;2.67;2.67;;;;;24.54;44.18;102545.00;5183501;27;45143;-77
2024/04/13 04:19:54;;;;;;;;;3.67;3.00;;;;;24.66;43.53;102556.19;5183683;27;43913;-77
2024/04/13 04:22:19;;;;;;;;;2.67;2.00;;;;;24.64;44.18;102551.03;5183288;27;44482;-77
2024/04/13 04:24:45;;;;;;;;;3.67;3.67;;;;;24.54;42.88;102535.16;5183657;27;44098;-77
2024/04/13 04:27:10;;;;;;;;;4.00;4.00;;;;;24.62;44.55;102543.19;5182481;27;45093;-76
2024/04/13 04:29:36;;;;;;;;;2.67;2.00;;;;;24.68;43.97;102544.41;5183036;27;44010;-78
2024/04/13 04:32:01;;;;;;;;;2.33;2.33;;;;;24.69;42.92;102551.41;5183501;27;44003;-77
2024/04/13 04:34:27;;;;;;;;;2.67;2.67;;;;;24.69;43.26;102548.75;5183598;27;44019;-77
2024/04/13 04:36:52;;;;;;;;;5.00;4.00;;;;;24.62;43.18;102545.03;5185706;27;45761;-78
2024/04/13 04:39:18;;;;;;;;;2.00;2.00;;;;;24.70;43.62;102554.88;5186208;27;43985;-77
2024/04/13 04:41:44;;;;;;;;;5.00;5.00;;;;;24.54;43.75;102521.84;5186098;27;43810;-76
2024/04/13 04:44:10;;;;;;;;;3.00;3.00;;;;;24.54;44.44;102527.16;5186200;27;43925;-78
2024/04/13 04:46:35;;;;;;;;;2.00;2.00;;;;;24.70;43.49;102557.53;5185839;27;44993;-76
2024/04/13 04:49:00;;;;;;;;;0.67;0.00;;;;;24.55;43.96;102530.69;5185870;27;43858;-78
2024/04/13 04:51:26;;;;;;;;;3.33;2.33;;;;;24.68;43.69;102557.72;5185783;27;44006;-76
2024/04/13 04:53:51;;;;;;;;;2.00;2.00;;;;;24.65;43.42;102551.84;5186014;27;43964;-77
2024/04/13 04:56:16;;;;;;;;;2.33;2.00;;;;;24.68;43.63;102549.72;5185962;27;43857;-77
2024/04/13 04:58:42;;;;;;;;;2.33;2.33;;;;;24.65;43.42;102549.19;5185966;27;43842;-77
2024/04/13 05:01:07;;;;;;;;;2.00;2.00;;;;;24.68;43.67;102551.53;5185947;27;43813;-77
2024/04/13 05:03:33;;;;;;;;;2.00;1.00;;;;;24.63;43.86;102544.03;5186081;27;43972;-78
2024/04/13 05:05:59;;;;;;;;;3.33;3.33;;;;;24.55;43.20;102534.19;5185338;27;46019;-76
2024/04/13 05:08:24;;;;;;;;;2.00;2.00;;;;;24.62;44.38;102548.53;5185793;27;43976;-77
2024/04/13 05:10:50;;;;;;;;;1.67;1.67;;;;;24.67;42.94;102548.03;5186094;27;43899;-77
2024/04/13 05:13:15;;;;;;;;;2.33;2.33;;;;;24.63;43.59;102547.53;5185783;27;43874;-77
2024/04/13 05:15:41;;;;;;;;;2.00;2.00;;;;;24.67;44.41;102548.03;5185430;27;45095;-77
2024/04/13 05:18:07;;;;;;;;;2.67;1.67;;;;;24.65;43.86;102546.53;5185827;27;44044;-76
2024/04/13 05:20:34;;;;;;;;;3.00;3.00;;;;;24.56;43.97;102533.19;5185289;27;43941;-77
2024/04/13 05:23:01;;;;;;;;;2.33;1.33;;;;;24.61;43.08;102538.03;5185824;27;44034;-77
2024/04/13 05:25:27;;;;;;;;;2.00;2.00;;;;;24.67;43.39;102547.25;5185464;27;44740;-77
2024/04/13 05:27:52;;;;;;;;;2.67;2.00;;;;;24.68;44.32;102546.22;5185695;27;43878;-77
2024/04/13 05:30:17;;;;;;;;;3.00;3.00;;;;;24.69;44.19;102545.25;5185912;27;43995;-77
2024/04/13 05:32:43;;;;;;;;;2.00;2.00;;;;;24.40;42.56;102496.66;5185133;27;43901;-78
2024/04/13 05:35:08;;;;;;;;;4.00;2.00;;;;;24.56;43.61;102522.56;5185501;27;44528;-77
2024/04/13 05:37:34;;;;;;;;;2.33;2.33;;;;;24.71;42.69;102541.44;5185684;27;44163;-77
2024/04/13 05:39:59;;;;;;;;;4.33;3.00;;;;;24.47;43.82;102497.72;5185622;27;44069;-77
2024/04/13 05:42:24;;;;;;;;;3.00;2.00;;;;;24.71;43.25;102532.63;5185712;27;43932;-76
2024/04/13 05:44:50;;;;;;;;;1.33;1.33;;;;;24.31;43.18;102466.50;5184338;27;44060;-77
2024/04/13 05:47:15;;;;;;;;;2.00;2.00;;;;;24.54;43.90;102500.56;5183739;27;44618;-77
2024/04/13 05:49:40;;;;;;;;;2.00;2.00;;;;;24.52;43.99;102497.22;5185735;27;44060;-77
2024/04/13 05:52:06;;;;;;;;;2.33;1.67;;;;;24.69;43.34;102514.16;5185371;27;44089;-77
2024/04/13 05:54:31;;;;;;;;;3.00;3.00;;;;;24.87;43.39;102539.03;5185379;27;43971;-76
2024/04/13 05:56:57;;;;;;;;;4.33;3.67;;;;;24.91;42.73;102548.34;5185428;27;43939;-77
2024/04/13 05:59:22;;;;;;;;;2.00;2.00;;;;;24.93;43.86;102547.19;5185228;27;43916;-77
2024/04/13 06:01:47;;;;;;;;;2.00;2.00;;;;;24.92;43.84;102534.06;5184951;27;43978;-78
2024/04/13 06:04:13;;;;;;;;;1.67;1.67;;;;;24.88;43.40;102528.19;5185466;27;45190;-78
2024/04/13 06:06:38;;;;;;;;;2.33;2.33;;;;;24.99;42.67;102536.91;5185151;27;43832;-77
2024/04/13 06:09:05;;;;;;;;;1.67;1.67;;;;;24.90;43.63;102514.75;5185427;27;43951;-77
2024/04/13 06:11:31;;;;;;;;;1.67;1.67;;;;;25.08;43.83;102541.31;5185405;27;43868;-77
2024/04/13 06:13:56;;;;;;;;;3.00;3.00;;;;;25.11;42.94;102543.63;5184874;27;44789;-77
2024/04/13 06:16:21;;;;;;;;;2.00;2.00;;;;;25.00;42.33;102531.44;5184708;27;43955;-77
2024/04/13 06:18:47;;;;;;;;;5.00;2.00;;;;;25.04;43.44;102531.97;5185323;27;43649;-77
2024/04/13 06:21:13;;;;;;;;;3.00;2.00;;;;;25.18;42.67;102551.84;5185134;27;43891;-77
2024/04/13 06:23:38;;;;;;;;;2.00;2.00;;;;;25.22;42.91;102542.53;5185017;27;43994;-78
2024/04/13 06:26:05;;;;;;;;;3.00;3.00;;;;;25.31;43.40;102555.88;5185081;27;44034;-77
2024/04/13 06:28:31;;;;;;;;;2.00;2.00;;;;;25.38;42.33;102544.41;5185465;27;43930;-77
2024/04/13 06:30:56;;;;;;;;;3.00;3.00;;;;;25.47;42.51;102547.94;5184709;27;43907;-77
2024/04/13 06:33:21;;;;;;;;;2.00;2.00;;;;;25.59;42.09;102544.97;5184963;27;44980;-77
2024/04/13 06:35:50;;;;;;;;;2.00;2.00;;;;;25.69;42.16;102550.97;5185067;27;43885;-78
2024/04/13 06:38:20;;;;;;;;;2.33;2.33;;;;;25.82;42.21;102545.19;5185242;27;43829;-77
2024/04/13 06:40:46;;;;;;;;;2.00;2.00;;;;;25.90;41.77;102543.53;5185037;27;43906;-77
2024/04/13 06:43:11;;;;;;;;;3.33;1.67;;;;;25.87;41.85;102531.38;5184714;27;45075;-77
2024/04/13 06:45:38;;;;;;;;;3.33;3.33;;;;;25.98;41.43;102546.22;5184629;27;44000;-77
2024/04/13 06:48:04;;;;;;;;;0.67;0.67;;;;;25.99;41.47;102537.22;5185240;27;44031;-78
2024/04/13 06:50:30;;;;;;;;;2.00;2.00;;;;;26.03;41.63;102541.22;5184806;27;44138;-78
2024/04/13 06:52:55;;;;;;;;;3.00;3.00;;;;;25.99;41.69;102517.72;5184945;27;46043;-77
2024/04/13 06:55:20;;;;;;;;;3.00;3.00;;;;;25.86;41.45;102495.06;5184917;27;44007;-77
2024/04/13 06:57:45;;;;;;;;;1.33;1.33;;;;;26.13;41.68;102529.53;5184402;27;43889;-78
2024/04/13 07:00:11;;;;;;;;;1.33;1.33;;;;;26.11;41.25;102528.88;5184474;27;43986;-77
2024/04/13 07:02:36;;;;;;;;;2.00;2.00;;;;;26.02;41.82;102509.38;5184687;27;45939;-78
2024/04/13 07:05:01;;;;;;;;;2.00;2.00;;;;;25.97;41.50;102507.19;5182884;27;43987;-77
2024/04/13 07:07:28;;;;;;;;;2.33;2.33;;;;;25.97;41.19;102504.53;5185085;27;43939;-77
2024/04/13 07:09:54;;;;;;;;;3.00;3.00;;;;;25.83;41.50;102492.72;5184706;27;43985;-77
2024/04/13 07:12:19;;;;;;;;;2.67;2.67;;;;;25.72;41.86;102467.19;5184606;27;44681;-78
2024/04/13 07:14:44;;;;;;;;;3.00;3.00;;;;;26.01;41.49;102518.38;5184094;27;43935;-78
2024/04/13 07:17:10;;;;;;;;;2.33;2.33;;;;;25.96;41.86;102516.22;5184343;27;46604;-77
2024/04/13 07:19:35;;;;;;;;;1.33;1.33;;;;;25.80;41.36;102480.56;5184620;27;44013;-77
2024/04/13 07:22:00;;;;;;;;;2.00;2.00;;;;;25.94;41.94;102504.88;5184422;27;45771;-77
2024/04/13 07:24:29;;;;;;;;;0.33;0.33;;;;;25.97;41.51;102520.53;5184626;27;46385;-77
2024/04/13 07:26:54;;;;;;;;;2.00;1.00;;;;;25.88;41.78;102492.22;5184723;27;43959;-77
2024/04/13 07:29:20;;;;;;;;;3.00;3.00;;;;;25.94;41.91;102500.38;5184211;27;43814;-78
2024/04/13 07:31:45;;;;;;;;;3.00;2.67;;;;;25.93;41.62;102498.72;5184383;27;44030;-77
2024/04/13 07:34:10;;;;;;;;;3.00;3.00;;;;;25.94;41.75;102496.88;5184532;27;44014;-78
2024/04/13 07:36:36;;;;;;;;;3.33;3.33;;;;;25.89;41.49;102489.41;5184422;27;43978;-77
2024/04/13 07:39:01;;;;;;;;;1.00;0.33;;;;;25.90;41.36;102485.72;5184579;27;43932;-78
2024/04/13 07:41:26;;;;;;;;;3.00;3.00;;;;;25.77;41.34;102478.22;5184287;27;44794;-77
2024/04/13 07:43:52;;;;;;;;;3.33;3.33;;;;;25.87;41.76;102483.38;5183946;27;43960;-78
2024/04/13 07:46:18;;;;;;;;;2.00;2.00;;;;;25.96;41.23;102502.88;5155485;27;43842;-78
2024/04/13 07:48:45;;;;;;;;;3.00;3.00;;;;;25.86;41.49;102481.72;5182654;27;44037;-78
2024/04/13 07:51:10;;;;;;;;;2.00;2.00;;;;;25.93;41.31;102482.72;5184080;27;45022;-78
2024/04/13 07:53:35;;;;;;;;;2.00;2.00;;;;;25.99;42.21;102493.72;5184361;27;44158;-77
2024/04/13 07:56:01;;;;;;;;;4.33;1.67;;;;;25.96;42.17;102486.88;5184269;27;44415;-77
2024/04/13 07:58:26;;;;;;;;;2.00;2.00;;;;;25.89;42.00;102472.56;5183613;27;43994;-78
2024/04/13 08:00:51;;;;;;;;;1.33;1.33;;;;;25.82;41.88;102457.22;5183957;27;43963;-78
2024/04/13 08:03:17;;;;;;;;;3.00;3.00;;;;;26.00;42.18;102482.03;5184009;27;44027;-77
2024/04/13 08:05:42;;;;;;;;;2.67;2.33;;;;;26.00;41.44;102484.69;5183968;27;43851;-77
2024/04/13 08:08:08;;;;;;;;;4.67;3.00;;;;;26.01;41.52;102483.72;5184154;27;44000;-76
2024/04/13 08:10:39;;;;;;;;;1.33;1.33;;;;;25.70;41.86;102437.19;5182379;27;44069;-78
2024/04/13 08:13:04;;;;;;;;;2.33;2.33;;;;;25.84;41.87;102457.88;5183420;27;44070;-80
2024/04/13 08:15:29;;;;;;;;;4.00;2.67;;;;;25.97;41.87;102480.53;5183702;27;43856;-78
2024/04/13 08:17:56;;;;;;;;;4.33;2.33;;;;;25.83;40.92;102452.72;5183935;27;43848;-79
2024/04/13 08:20:21;;;;;;;;;7.00;4.67;;;;;25.83;40.95;102461.56;5183622;27;43872;-84
2024/04/13 08:22:47;;;;;;;;;4.00;4.00;;;;;26.01;40.45;102486.38;5183618;27;43967;-76
2024/04/13 08:25:12;;;;;;;;;8.00;5.67;;;;;25.92;40.35;102470.38;5182688;27;43837;-75
2024/04/13 08:27:37;;;;;;;;;5.33;5.33;;;;;26.06;40.61;102478.69;5183089;27;43950;-75
2024/04/13 08:30:03;;;;;;;;;6.00;4.00;;;;;26.03;40.22;102463.88;5183428;27;45837;-75
2024/04/13 08:32:29;;;;;;;;;4.00;3.67;;;;;26.07;40.51;102469.72;5183358;27;44065;-75
2024/04/13 08:34:54;;;;;;;;;7.33;5.00;;;;;26.10;40.03;102468.53;5183430;27;43959;-77
2024/04/13 08:37:20;;;;;;;;;5.67;4.33;;;;;26.12;40.15;102469.19;5183425;27;44019;-76
2024/04/13 08:39:46;;;;;;;;;6.33;5.33;;;;;25.99;39.64;102437.72;5183099;27;45683;-74
2024/04/13 08:42:14;;;;;;;;;5.67;5.67;;;;;26.12;39.94;102448.69;5182948;27;43944;-75
2024/04/13 08:44:40;;;;;;;;;5.33;5.00;;;;;26.03;39.55;102429.19;5181356;27;44190;-75
2024/04/13 08:47:06;;;;;;;;;5.67;5.00;;;;;26.22;40.16;102455.69;5183186;27;43880;-75
2024/04/13 08:49:39;;;;;;;;;4.67;4.00;;;;;26.23;39.97;102450.16;5183069;27;44733;-76
2024/04/13 08:52:09;;;;;;;;;7.00;6.00;;;;;26.23;39.31;102452.81;5181716;27;44079;-74
2024/04/13 08:54:35;;;;;;;;;6.33;6.00;;;;;26.21;39.47;102444.16;5182729;27;43980;-75
2024/04/13 08:57:02;;;;;;;;;5.00;5.00;;;;;26.22;40.16;102437.84;5180853;27;44143;-75
2024/04/13 08:59:28;;;;;;;;;7.67;5.00;;;;;26.18;39.50;102433.84;5182618;27;44899;-75
2024/04/13 09:01:55;;;;;;;;;4.00;4.00;;;;;26.23;39.66;102439.50;5182436;27;44063;-76
2024/04/13 09:04:21;;;;;;;;;5.67;4.00;;;;;26.22;39.89;102439.66;5182868;27;43940;-76
2024/04/13 09:06:48;;;;;;;;;4.00;4.00;;;;;26.20;38.91;102434.53;5182788;27;43994;-75
2024/04/13 09:09:14;;;;;;;;;4.00;3.67;;;;;26.25;39.72;102436.66;5182696;27;44019;-75
2024/04/13 09:11:40;;;;;;;;;4.00;2.67;;;;;26.25;39.72;102431.34;5182313;27;43912;-75
2024/04/13 09:14:05;;;;;;;;;6.00;5.00;;;;;26.22;39.33;102424.50;5182670;27;43970;-74
2024/04/13 09:16:32;;;;;;;;;3.00;3.00;;;;;26.24;39.10;102427.00;5183004;27;44154;-75
2024/04/13 09:18:58;;;;;;;;;4.00;4.00;;;;;26.25;39.44;102426.84;5182665;27;44999;-74
2024/04/13 09:21:23;;;;;;;;;4.67;4.00;;;;;26.11;39.08;102399.00;5181896;27;43864;-74
2024/04/13 09:23:54;;;;;;;;;6.67;3.67;;;;;26.26;39.50;102415.16;5185780;27;43951;-75
2024/04/13 09:26:21;;;;;;;;;7.00;5.67;;;;;26.26;39.47;102414.31;5185315;27;43991;-76
2024/04/13 09:28:47;;;;;;;;;6.00;5.00;;;;;26.31;38.99;102416.47;5185515;27;44871;-75
2024/04/13 09:31:15;;;;;;;;;6.00;5.33;;;;;26.22;39.04;102397.81;5185810;27;43910;-74
2024/04/13 09:33:46;;;;;;;;;3.33;3.33;;;;;26.28;39.40;102397.13;5184574;27;43995;-79
2024/04/13 09:36:19;;;;;;;;;4.33;2.33;;;;;26.35;39.00;102407.97;5185945;27;43935;-80
2024/04/13 09:38:45;;;;;;;;;4.33;4.00;;;;;26.27;39.44;102384.81;5185413;27;44980;-80
2024/04/13 09:41:11;;;;;;;;;5.00;4.00;;;;;26.27;39.48;102387.47;5185037;27;44273;-79
2024/04/13 09:43:36;;;;;;;;;4.00;4.00;;;;;26.32;39.31;102386.13;5186097;27;44338;-80
2024/04/13 09:46:02;;;;;;;;;4.00;3.67;;;;;26.41;38.79;102393.91;5185471;27;44118;-80
2024/04/13 09:48:28;;;;;;;;;3.67;3.67;;;;;26.43;39.33;102385.75;5185409;27;45825;-80
2024/04/13 09:50:55;;;;;;;;;4.00;4.00;;;;;26.38;39.08;102374.75;5185284;27;43984;-80
2024/04/13 09:53:20;;;;;;;;;3.67;3.00;;;;;26.38;39.43;102377.44;5185792;27;43947;-79
2024/04/13 09:55:46;;;;;;;;;3.00;3.00;;;;;26.43;38.70;102387.56;5211097;27;44022;-79
2024/04/13 09:58:13;;;;;;;;;4.00;2.00;;;;;26.47;39.54;102389.75;5185237;27;44907;-79
2024/04/13 10:00:40;;;;;;;;;4.33;4.00;;;;;26.49;39.17;102384.25;5183584;27;44054;-79
2024/04/13 10:03:06;;;;;;;;;5.33;3.00;;;;;26.39;39.54;102365.72;5185477;27;43773;-79
2024/04/13 10:05:35;;;;;;;;;3.00;3.00;;;;;26.50;39.44;102376.06;5185894;27;44033;-79
2024/04/13 10:08:05;;;;;;;;;2.33;2.00;;;;;26.51;39.07;102372.41;5185638;27;44015;-74
2024/04/13 10:10:31;;;;;;;;;3.00;3.00;;;;;26.41;39.92;102359.22;5184726;27;43859;-78
2024/04/13 10:12:58;;;;;;;;;3.67;3.00;;;;;26.40;39.67;102348.72;5185470;27;43877;-79
2024/04/13 10:15:24;;;;;;;;;4.00;4.00;;;;;26.51;40.18;102372.41;5185397;27;43947;-78
2024/04/13 10:17:50;;;;;;;;;4.00;4.00;;;;;26.50;40.30;102373.41;5185129;27;44031;-78
2024/04/13 10:20:15;;;;;;;;;4.00;2.00;;;;;26.29;40.21;102336.59;5185356;27;44031;-79
2024/04/13 10:22:51;;;;;;;;;2.67;2.67;;;;;26.32;40.30;102338.09;5184719;27;43967;-79
2024/04/13 10:25:17;;;;;;;;;2.33;2.33;;;;;26.48;40.57;102361.25;5185296;27;44055;-78
2024/04/13 10:27:42;;;;;;;;;3.00;3.00;;;;;26.45;40.50;102351.75;5184922;27;44390;-78
2024/04/13 10:30:08;;;;;;;;;3.00;3.00;;;;;26.37;40.96;102331.22;5185286;27;43840;-76
2024/04/13 10:32:33;;;;;;;;;4.00;3.00;;;;;26.47;40.83;102340.88;5183175;27;43929;-76
2024/04/13 10:35:08;;;;;;;;;2.00;2.00;;;;;26.46;41.46;102348.06;5183858;27;43978;-76
2024/04/13 10:37:35;;;;;;;;;4.00;4.00;;;;;26.34;41.14;102320.91;5183999;27;45012;-77
2024/04/13 10:40:04;;;;;;;;;1.67;1.00;;;;;26.40;41.12;102328.22;5183755;27;43979;-77
2024/04/13 10:42:34;;;;;;;;;4.00;3.00;;;;;26.47;41.08;102336.38;5181579;27;44337;-79
2024/04/13 10:44:59;;;;;;;;;4.67;4.67;;;;;26.40;41.05;102316.72;5184349;27;44062;-76
2024/04/13 10:47:26;;;;;;;;;4.00;3.00;;;;;26.47;41.13;102327.53;5182328;27;46624;-76
2024/04/13 10:49:54;;;;;;;;;4.00;4.00;;;;;26.43;40.59;102326.19;5184721;27;43975;-77
2024/04/13 10:52:20;;;;;;;;;4.67;2.00;;;;;26.41;41.36;102321.88;5182714;27;44032;-80
2024/04/13 10:54:58;;;;;;;;;2.33;2.00;;;;;26.47;41.27;102328.38;5184604;27;44091;-80
2024/04/13 10:57:25;;;;;;;;;5.67;3.00;;;;;26.46;40.77;102331.22;5179991;27;45566;-83
2024/04/13 10:59:51;;;;;;;;;3.00;3.00;;;;;26.44;40.31;102322.56;5185109;27;44745;-85
2024/04/13 11:02:16;;;;;;;;;2.33;2.33;;;;;26.42;40.22;102328.03;5183214;27;43983;-84
2024/04/13 11:04:44;;;;;;;;;4.00;2.33;;;;;26.39;40.39;102323.88;5182122;27;44077;-84
2024/04/13 11:07:14;;;;;;;;;2.33;2.33;;;;;26.39;39.89;102320.38;5182620;27;43981;-83
2024/04/13 11:09:41;;;;;;;;;3.33;3.00;;;;;26.34;40.22;102309.41;5183705;27;43988;-83
2024/04/13 11:12:11;;;;;;;;;2.33;2.33;;;;;26.38;40.14;102311.56;5184904;27;43991;-84
2024/04/13 11:14:36;;;;;;;;;2.00;2.00;;;;;26.26;40.18;102288.91;5181883;27;43902;-84
2024/04/13 11:17:01;;;;;;;;;3.00;3.00;;;;;26.31;39.68;102285.75;5185197;27;43880;-84
2024/04/13 11:19:27;;;;;;;;;3.33;3.33;;;;;26.35;40.60;102289.72;5184209;27;43868;-84